WXM80 ListenWXM80 Stop

You find our weather info also at:

UK Metoffice

WeatherCloud

Weather Underground

Northeastern Weather Network

AWEKAS

Citizen Weather Observer Program (CWOP)

HAMweather, WeatherForYou, PWS Weather


Weather Underground History page Text

Daily Summary for November 24, 2017 Units:  Both    English   Metric
« Previous Day
Next Day »
Daily Weekly Monthly Yearly Custom
  High: Low: Average:
Temperature: 49.0 °F /  9.4 °C 30.7 °F /  -0.7 °C 39.4 °F /  4.1 °C
Dew Point: 36.7 °F /  2.6 °C 26.0 °F /  -3.3 °C 31.1 °F /  -0.5 °C
Humidity: 89 % 54 % 73 %
Wind Speed: 4.1 mph /  6.6 km/h - 1 mph /  1.6 km/h
Wind Gust: 8.1 mph /  13 km/h - -
Wind:- - WSW
Pressure: 30.08 in /  1018.5 hPa 29.95 in /  1014.1 hPa -
Precipitation: 0.01 in /  0.25 mm    
Historical Graphs
 
 
Tabular Data for November 24, 2017
Time Temperature Dew Point Pressure Wind Wind Speed Wind Gust Humidity Rainfall Rate (Hourly)
00:02 31.1 °F /  -0.5 °C 26.0 °F /  -3.3 °C 30.06 in /  1017.8 hPa WSW 0.3 mph /  0.5 km/h 1.2 mph /  1.9 km/h 81 % 0.00 in /  0 mm
00:07 31.0 °F /  -0.6 °C 26.1 °F /  -3.3 °C 30.06 in /  1017.8 hPa WSW 0.3 mph /  0.5 km/h 2.3 mph /  3.7 km/h 82 % 0.00 in /  0 mm
00:12 31.0 °F /  -0.6 °C 26.1 °F /  -3.3 °C 30.06 in /  1017.8 hPa WSW 0.8 mph /  1.3 km/h 1.2 mph /  1.9 km/h 82 % 0.00 in /  0 mm
00:17 31.0 °F /  -0.6 °C 26.1 °F /  -3.3 °C 30.06 in /  1017.8 hPa Calm     82 % 0.00 in /  0 mm
00:22 31.0 °F /  -0.6 °C 26.1 °F /  -3.3 °C 30.05 in /  1017.5 hPa WSW 0.9 mph /  1.4 km/h 2.3 mph /  3.7 km/h 82 % 0.00 in /  0 mm
00:27 30.9 °F /  -0.6 °C 26.1 °F /  -3.3 °C 30.05 in /  1017.5 hPa WSW 0.4 mph /  0.6 km/h 1.2 mph /  1.9 km/h 82 % 0.00 in /  0 mm
00:32 30.9 °F /  -0.6 °C 26.3 °F /  -3.2 °C 30.05 in /  1017.5 hPa WSW 0.4 mph /  0.6 km/h 2.3 mph /  3.7 km/h 83 % 0.00 in /  0 mm
00:37 30.9 °F /  -0.6 °C 26.3 °F /  -3.2 °C 30.05 in /  1017.5 hPa WSW 1.3 mph /  2.1 km/h 2.3 mph /  3.7 km/h 83 % 0.00 in /  0 mm
00:42 30.9 °F /  -0.6 °C 26.3 °F /  -3.2 °C 30.05 in /  1017.5 hPa WSW 1.1 mph /  1.8 km/h 2.3 mph /  3.7 km/h 83 % 0.00 in /  0 mm
00:47 30.9 °F /  -0.6 °C 26.6 °F /  -3 °C 30.05 in /  1017.5 hPa WSW 0.2 mph /  0.3 km/h 1.2 mph /  1.9 km/h 84 % 0.00 in /  0 mm
00:52 30.9 °F /  -0.6 °C 26.6 °F /  -3 °C 30.05 in /  1017.5 hPa Calm     84 % 0.00 in /  0 mm
00:57 30.9 °F /  -0.6 °C 26.6 °F /  -3 °C 30.05 in /  1017.5 hPa Calm     84 % 0.00 in /  0 mm
01:02 30.9 °F /  -0.6 °C 26.6 °F /  -3 °C 30.05 in /  1017.5 hPa Calm   1.2 mph /  1.9 km/h 84 % 0.00 in /  0 mm
01:12 30.9 °F /  -0.6 °C 26.6 °F /  -3 °C 30.04 in /  1017.2 hPa Calm     84 % 0.00 in /  0 mm
01:17 30.9 °F /  -0.6 °C 26.6 °F /  -3 °C 30.04 in /  1017.2 hPa WSW 0.6 mph /  1 km/h 2.0 mph /  3.2 km/h 84 % 0.00 in /  0 mm
01:23 30.9 °F /  -0.6 °C 26.6 °F /  -3 °C 30.04 in /  1017.2 hPa WSW 0.1 mph /  0.2 km/h 1.2 mph /  1.9 km/h 84 % 0.00 in /  0 mm
01:33 30.9 °F /  -0.6 °C 26.9 °F /  -2.8 °C 30.05 in /  1017.5 hPa Calm     85 % 0.00 in /  0 mm
01:38 30.9 °F /  -0.6 °C 26.9 °F /  -2.8 °C 30.05 in /  1017.5 hPa WSW 0.3 mph /  0.5 km/h 1.0 mph /  1.6 km/h 85 % 0.00 in /  0 mm
01:43 30.9 °F /  -0.6 °C 26.9 °F /  -2.8 °C 30.05 in /  1017.5 hPa Calm     85 % 0.00 in /  0 mm
01:48 30.9 °F /  -0.6 °C 26.9 °F /  -2.8 °C 30.05 in /  1017.5 hPa WSW 1.2 mph /  1.9 km/h 2.3 mph /  3.7 km/h 85 % 0.00 in /  0 mm
01:58 31.0 °F /  -0.6 °C 26.7 °F /  -2.9 °C 30.05 in /  1017.5 hPa WSW 1.0 mph /  1.6 km/h 2.3 mph /  3.7 km/h 84 % 0.00 in /  0 mm
02:03 31.0 °F /  -0.6 °C 26.7 °F /  -2.9 °C 30.05 in /  1017.5 hPa Calm     84 % 0.00 in /  0 mm
02:08 31.1 °F /  -0.5 °C 26.8 °F /  -2.9 °C 30.05 in /  1017.5 hPa WSW 0.5 mph /  0.8 km/h 1.2 mph /  1.9 km/h 84 % 0.00 in /  0 mm
02:13 31.1 °F /  -0.5 °C 26.8 °F /  -2.9 °C 30.05 in /  1017.5 hPa WSW 1.0 mph /  1.6 km/h 2.3 mph /  3.7 km/h 84 % 0.00 in /  0 mm
02:18 31.2 °F /  -0.4 °C 26.9 °F /  -2.8 °C 30.05 in /  1017.5 hPa Calm   1.2 mph /  1.9 km/h 84 % 0.00 in /  0 mm
02:23 31.2 °F /  -0.4 °C 26.9 °F /  -2.8 °C 30.05 in /  1017.5 hPa Calm     84 % 0.00 in /  0 mm
02:33 31.3 °F /  -0.4 °C 27.0 °F /  -2.8 °C 30.05 in /  1017.5 hPa WSW 1.2 mph /  1.9 km/h 3.5 mph /  5.6 km/h 84 % 0.00 in /  0 mm
02:38 31.3 °F /  -0.4 °C 27.0 °F /  -2.8 °C 30.05 in /  1017.5 hPa Calm     84 % 0.00 in /  0 mm
02:43 31.3 °F /  -0.4 °C 27.0 °F /  -2.8 °C 30.05 in /  1017.5 hPa WSW 0.3 mph /  0.5 km/h 1.2 mph /  1.9 km/h 84 % 0.00 in /  0 mm
02:53 31.3 °F /  -0.4 °C 26.7 °F /  -2.9 °C 30.05 in /  1017.5 hPa WSW 0.3 mph /  0.5 km/h 1.2 mph /  1.9 km/h 83 % 0.00 in /  0 mm
02:58 31.3 °F /  -0.4 °C 26.7 °F /  -2.9 °C 30.05 in /  1017.5 hPa WSW 0.8 mph /  1.3 km/h 2.3 mph /  3.7 km/h 83 % 0.00 in /  0 mm
03:03 31.3 °F /  -0.4 °C 26.7 °F /  -2.9 °C 30.05 in /  1017.5 hPa WSW 0.1 mph /  0.2 km/h 1.2 mph /  1.9 km/h 83 % 0.00 in /  0 mm
03:08 31.2 °F /  -0.4 °C 26.6 °F /  -3 °C 30.05 in /  1017.5 hPa WSW 2.0 mph /  3.2 km/h 3.5 mph /  5.6 km/h 83 % 0.00 in /  0 mm
03:13 31.1 °F /  -0.5 °C 26.5 °F /  -3.1 °C 30.05 in /  1017.5 hPa WSW 0.6 mph /  1 km/h 2.3 mph /  3.7 km/h 83 % 0.00 in /  0 mm
03:23 31.0 °F /  -0.6 °C 26.7 °F /  -2.9 °C 30.05 in /  1017.5 hPa WSW 0.2 mph /  0.3 km/h 2.3 mph /  3.7 km/h 84 % 0.00 in /  0 mm
03:33 31.0 °F /  -0.6 °C 27.0 °F /  -2.8 °C 30.05 in /  1017.5 hPa Calm     85 % 0.00 in /  0 mm
03:43 30.9 °F /  -0.6 °C 26.9 °F /  -2.8 °C 30.05 in /  1017.5 hPa Calm     85 % 0.00 in /  0 mm
03:54 30.9 °F /  -0.6 °C 26.9 °F /  -2.8 °C 30.05 in /  1017.5 hPa Calm   1.2 mph /  1.9 km/h 85 % 0.00 in /  0 mm
03:59 30.8 °F /  -0.7 °C 26.8 °F /  -2.9 °C 30.04 in /  1017.2 hPa WSW 0.1 mph /  0.2 km/h 2.3 mph /  3.7 km/h 85 % 0.00 in /  0 mm
04:14 30.9 °F /  -0.6 °C 27.2 °F /  -2.7 °C 30.05 in /  1017.5 hPa WSW 1.7 mph /  2.7 km/h 3.5 mph /  5.6 km/h 86 % 0.00 in /  0 mm
04:19 31.0 °F /  -0.6 °C 27.3 °F /  -2.6 °C 30.04 in /  1017.2 hPa WSW 1.7 mph /  2.7 km/h 2.3 mph /  3.7 km/h 86 % 0.00 in /  0 mm
04:29 31.1 °F /  -0.5 °C 27.4 °F /  -2.6 °C 30.04 in /  1017.2 hPa WSW 1.1 mph /  1.8 km/h 2.3 mph /  3.7 km/h 86 % 0.00 in /  0 mm
04:34 31.1 °F /  -0.5 °C 27.4 °F /  -2.6 °C 30.04 in /  1017.2 hPa WSW 0.9 mph /  1.4 km/h 2.3 mph /  3.7 km/h 86 % 0.00 in /  0 mm
04:39 31.2 °F /  -0.4 °C 27.5 °F /  -2.5 °C 30.04 in /  1017.2 hPa WSW 1.4 mph /  2.3 km/h 2.3 mph /  3.7 km/h 86 % 0.00 in /  0 mm
04:49 31.2 °F /  -0.4 °C 27.5 °F /  -2.5 °C 30.04 in /  1017.2 hPa WSW 1.0 mph /  1.6 km/h 2.3 mph /  3.7 km/h 86 % 0.00 in /  0 mm
04:54 31.2 °F /  -0.4 °C 27.5 °F /  -2.5 °C 30.05 in /  1017.5 hPa WSW 1.4 mph /  2.3 km/h 2.3 mph /  3.7 km/h 86 % 0.00 in /  0 mm
04:59 31.3 °F /  -0.4 °C 27.6 °F /  -2.4 °C 30.05 in /  1017.5 hPa WSW 1.4 mph /  2.3 km/h 3.5 mph /  5.6 km/h 86 % 0.00 in /  0 mm
05:04 31.4 °F /  -0.3 °C 27.7 °F /  -2.4 °C 30.05 in /  1017.5 hPa WSW 0.5 mph /  0.8 km/h 3.5 mph /  5.6 km/h 86 % 0.00 in /  0 mm
05:09 31.5 °F /  -0.3 °C 27.5 °F /  -2.5 °C 30.05 in /  1017.5 hPa WSW 1.1 mph /  1.8 km/h 3.0 mph /  4.8 km/h 85 % 0.00 in /  0 mm
05:14 31.5 °F /  -0.3 °C 27.5 °F /  -2.5 °C 30.06 in /  1017.8 hPa WSW 0.5 mph /  0.8 km/h 2.3 mph /  3.7 km/h 85 % 0.00 in /  0 mm
05:19 31.6 °F /  -0.2 °C 27.6 °F /  -2.4 °C 30.06 in /  1017.8 hPa WSW 0.5 mph /  0.8 km/h 2.3 mph /  3.7 km/h 85 % 0.00 in /  0 mm
05:29 31.6 °F /  -0.2 °C 27.6 °F /  -2.4 °C 30.06 in /  1017.8 hPa WSW 0.5 mph /  0.8 km/h 2.0 mph /  3.2 km/h 85 % 0.00 in /  0 mm
05:34 31.6 °F /  -0.2 °C 27.6 °F /  -2.4 °C 30.06 in /  1017.8 hPa WSW 2.0 mph /  3.2 km/h 3.0 mph /  4.8 km/h 85 % 0.00 in /  0 mm
05:39 31.6 °F /  -0.2 °C 27.6 °F /  -2.4 °C 30.06 in /  1017.8 hPa WSW 1.5 mph /  2.4 km/h 2.3 mph /  3.7 km/h 85 % 0.00 in /  0 mm
05:44 31.5 °F /  -0.3 °C 27.2 °F /  -2.7 °C 30.05 in /  1017.5 hPa Calm     84 % 0.00 in /  0 mm
05:49 31.5 °F /  -0.3 °C 27.2 °F /  -2.7 °C 30.06 in /  1017.8 hPa Calm     84 % 0.00 in /  0 mm
05:55 31.4 °F /  -0.3 °C 27.1 °F /  -2.7 °C 30.06 in /  1017.8 hPa Calm   1.2 mph /  1.9 km/h 84 % 0.00 in /  0 mm
06:00 31.3 °F /  -0.4 °C 27.0 °F /  -2.8 °C 30.06 in /  1017.8 hPa Calm     84 % 0.00 in /  0 mm
06:05 31.2 °F /  -0.4 °C 26.9 °F /  -2.8 °C 30.06 in /  1017.8 hPa Calm     84 % 0.00 in /  0 mm
06:10 31.1 °F /  -0.5 °C 26.8 °F /  -2.9 °C 30.06 in /  1017.8 hPa Calm     84 % 0.00 in /  0 mm
06:15 31.1 °F /  -0.5 °C 26.8 °F /  -2.9 °C 30.07 in /  1018.2 hPa Calm     84 % 0.00 in /  0 mm
06:20 31.0 °F /  -0.6 °C 26.7 °F /  -2.9 °C 30.07 in /  1018.2 hPa Calm     84 % 0.00 in /  0 mm
06:25 31.0 °F /  -0.6 °C 26.7 °F /  -2.9 °C 30.07 in /  1018.2 hPa Calm     84 % 0.00 in /  0 mm
06:30 31.0 °F /  -0.6 °C 26.4 °F /  -3.1 °C 30.07 in /  1018.2 hPa Calm     83 % 0.00 in /  0 mm
06:35 31.0 °F /  -0.6 °C 26.4 °F /  -3.1 °C 30.07 in /  1018.2 hPa Calm     83 % 0.00 in /  0 mm
06:40 31.0 °F /  -0.6 °C 26.4 °F /  -3.1 °C 30.07 in /  1018.2 hPa Calm     83 % 0.00 in /  0 mm
06:45 30.9 °F /  -0.6 °C 26.3 °F /  -3.2 °C 30.08 in /  1018.5 hPa Calm     83 % 0.00 in /  0 mm
06:50 30.9 °F /  -0.6 °C 26.3 °F /  -3.2 °C 30.07 in /  1018.2 hPa WSW 0.2 mph /  0.3 km/h 1.0 mph /  1.6 km/h 83 % 0.00 in /  0 mm
06:55 30.8 °F /  -0.7 °C 26.2 °F /  -3.2 °C 30.07 in /  1018.2 hPa Calm     83 % 0.00 in /  0 mm
07:01 30.8 °F /  -0.7 °C 26.5 °F /  -3.1 °C 30.08 in /  1018.5 hPa WSW 1.3 mph /  2.1 km/h 2.3 mph /  3.7 km/h 84 % 0.00 in /  0 mm
07:06 30.8 °F /  -0.7 °C 26.5 °F /  -3.1 °C 30.08 in /  1018.5 hPa WSW 0.2 mph /  0.3 km/h 1.2 mph /  1.9 km/h 84 % 0.00 in /  0 mm
07:11 30.7 °F /  -0.7 °C 26.4 °F /  -3.1 °C 30.08 in /  1018.5 hPa WSW 0.8 mph /  1.3 km/h 2.3 mph /  3.7 km/h 84 % 0.00 in /  0 mm
07:16 30.7 °F /  -0.7 °C 26.4 °F /  -3.1 °C 30.08 in /  1018.5 hPa WSW 2.3 mph /  3.7 km/h 3.5 mph /  5.6 km/h 84 % 0.00 in /  0 mm
07:21 30.8 °F /  -0.7 °C 26.5 °F /  -3.1 °C 30.08 in /  1018.5 hPa WSW 2.4 mph /  3.9 km/h 4.0 mph /  6.4 km/h 84 % 0.00 in /  0 mm
07:26 30.9 °F /  -0.6 °C 26.3 °F /  -3.2 °C 30.08 in /  1018.5 hPa SW 1.8 mph /  2.9 km/h 5.8 mph /  9.3 km/h 83 % 0.00 in /  0 mm
07:31 31.1 °F /  -0.5 °C 26.5 °F /  -3.1 °C 30.08 in /  1018.5 hPa SW 2.2 mph /  3.5 km/h 3.5 mph /  5.6 km/h 83 % 0.00 in /  0 mm
07:36 31.4 °F /  -0.3 °C 26.8 °F /  -2.9 °C 30.08 in /  1018.5 hPa SW 3.1 mph /  5 km/h 5.8 mph /  9.3 km/h 83 % 0.00 in /  0 mm
07:41 31.6 °F /  -0.2 °C 27.0 °F /  -2.8 °C 30.08 in /  1018.5 hPa SW 2.6 mph /  4.2 km/h 3.5 mph /  5.6 km/h 83 % 0.00 in /  0 mm
07:46 31.8 °F /  -0.1 °C 26.9 °F /  -2.8 °C 30.08 in /  1018.5 hPa SW 1.7 mph /  2.7 km/h 3.0 mph /  4.8 km/h 82 % 0.00 in /  0 mm
07:51 32.1 °F /  0.1 °C 27.2 °F /  -2.7 °C 30.08 in /  1018.5 hPa SW 0.5 mph /  0.8 km/h 1.2 mph /  1.9 km/h 82 % 0.00 in /  0 mm
07:56 32.4 °F /  0.2 °C 27.5 °F /  -2.5 °C 30.08 in /  1018.5 hPa SW 0.7 mph /  1.1 km/h 2.3 mph /  3.7 km/h 82 % 0.00 in /  0 mm
08:01 32.7 °F /  0.4 °C 27.8 °F /  -2.3 °C 30.08 in /  1018.5 hPa SW 0.5 mph /  0.8 km/h 2.3 mph /  3.7 km/h 82 % 0.00 in /  0 mm
08:06 33.0 °F /  0.6 °C 27.8 °F /  -2.3 °C 30.08 in /  1018.5 hPa SW 0.4 mph /  0.6 km/h 2.3 mph /  3.7 km/h 81 % 0.00 in /  0 mm
08:11 33.3 °F /  0.7 °C 28.1 °F /  -2.2 °C 30.08 in /  1018.5 hPa Calm   1.2 mph /  1.9 km/h 81 % 0.00 in /  0 mm
08:16 33.7 °F /  0.9 °C 28.2 °F /  -2.1 °C 30.08 in /  1018.5 hPa SW 1.2 mph /  1.9 km/h 3.5 mph /  5.6 km/h 80 % 0.00 in /  0 mm
08:21 34.0 °F /  1.1 °C 28.5 °F /  -1.9 °C 30.08 in /  1018.5 hPa SW 0.4 mph /  0.6 km/h 3.5 mph /  5.6 km/h 80 % 0.00 in /  0 mm
08:26 34.3 °F /  1.3 °C 28.8 °F /  -1.8 °C 30.08 in /  1018.5 hPa WSW 1.1 mph /  1.8 km/h 2.3 mph /  3.7 km/h 80 % 0.00 in /  0 mm
08:31 34.7 °F /  1.5 °C 29.2 °F /  -1.6 °C 30.08 in /  1018.5 hPa WSW 0.7 mph /  1.1 km/h 2.3 mph /  3.7 km/h 80 % 0.00 in /  0 mm
08:36 35.0 °F /  1.7 °C 29.5 °F /  -1.4 °C 30.08 in /  1018.5 hPa West 0.8 mph /  1.3 km/h 2.3 mph /  3.7 km/h 80 % 0.00 in /  0 mm
08:41 35.4 °F /  1.9 °C 29.5 °F /  -1.4 °C 30.07 in /  1018.2 hPa West 2.7 mph /  4.3 km/h 4.6 mph /  7.4 km/h 79 % 0.00 in /  0 mm
08:47 35.9 °F /  2.2 °C 30.0 °F /  -1.1 °C 30.07 in /  1018.2 hPa West 3.9 mph /  6.3 km/h 5.8 mph /  9.3 km/h 79 % 0.00 in /  0 mm
08:52 36.5 °F /  2.5 °C 30.3 °F /  -0.9 °C 30.07 in /  1018.2 hPa WSW 3.3 mph /  5.3 km/h 8.1 mph /  13 km/h 78 % 0.00 in /  0 mm
08:57 37.2 °F /  2.9 °C 30.7 °F /  -0.7 °C 30.07 in /  1018.2 hPa West 1.0 mph /  1.6 km/h 3.5 mph /  5.6 km/h 77 % 0.00 in /  0 mm
09:02 37.9 °F /  3.3 °C 31.0 °F /  -0.6 °C 30.07 in /  1018.2 hPa WNW 1.7 mph /  2.7 km/h 4.6 mph /  7.4 km/h 76 % 0.00 in /  0 mm
09:07 38.7 °F /  3.7 °C 31.1 °F /  -0.5 °C 30.08 in /  1018.5 hPa WSW 0.3 mph /  0.5 km/h 1.2 mph /  1.9 km/h 74 % 0.00 in /  0 mm
09:12 39.5 °F /  4.2 °C 31.6 °F /  -0.2 °C 30.08 in /  1018.5 hPa West 0.9 mph /  1.4 km/h 2.3 mph /  3.7 km/h 73 % 0.00 in /  0 mm
09:17 40.1 °F /  4.5 °C 31.8 °F /  -0.1 °C 30.08 in /  1018.5 hPa West 1.7 mph /  2.7 km/h 3.5 mph /  5.6 km/h 72 % 0.00 in /  0 mm
09:22 40.8 °F /  4.9 °C 32.5 °F /  0.3 °C 30.08 in /  1018.5 hPa WSW 1.3 mph /  2.1 km/h 4.0 mph /  6.4 km/h 72 % 0.00 in /  0 mm
09:27 41.5 °F /  5.3 °C 32.8 °F /  0.4 °C 30.07 in /  1018.2 hPa Calm   1.0 mph /  1.6 km/h 71 % 0.00 in /  0 mm
09:32 42.2 °F /  5.7 °C 32.8 °F /  0.4 °C 30.07 in /  1018.2 hPa Calm     69 % 0.00 in /  0 mm
09:37 42.8 °F /  6 °C 32.6 °F /  0.3 °C 30.07 in /  1018.2 hPa WNW 1.8 mph /  2.9 km/h 2.3 mph /  3.7 km/h 67 % 0.00 in /  0 mm
09:42 43.4 °F /  6.3 °C 32.4 °F /  0.2 °C 30.07 in /  1018.2 hPa WSW 1.7 mph /  2.7 km/h 3.5 mph /  5.6 km/h 65 % 0.00 in /  0 mm
09:48 44.0 °F /  6.7 °C 32.6 °F /  0.3 °C 30.07 in /  1018.2 hPa WSW 1.0 mph /  1.6 km/h 3.5 mph /  5.6 km/h 64 % 0.00 in /  0 mm
09:53 44.6 °F /  7 °C 33.2 °F /  0.7 °C 30.07 in /  1018.2 hPa SW 1.0 mph /  1.6 km/h 2.3 mph /  3.7 km/h 64 % 0.00 in /  0 mm
09:54 44.8 °F /  7.1 °C 33.0 °F /  0.6 °C 30.07 in /  1018.2 hPa West 1.1 mph /  1.8 km/h 1.2 mph /  1.9 km/h 63 % 0.00 in /  0 mm
10:00 45.2 °F /  7.3 °C 32.5 °F /  0.3 °C 30.07 in /  1018.2 hPa WSW 1.7 mph /  2.7 km/h 3.5 mph /  5.6 km/h 61 % 0.00 in /  0 mm
10:05 45.5 °F /  7.5 °C 32.4 °F /  0.2 °C 30.07 in /  1018.2 hPa WSW 0.1 mph /  0.2 km/h 4.6 mph /  7.4 km/h 60 % 0.00 in /  0 mm
10:10 45.9 °F /  7.7 °C 32.8 °F /  0.4 °C 30.06 in /  1017.8 hPa SW 2.2 mph /  3.5 km/h 3.5 mph /  5.6 km/h 60 % 0.00 in /  0 mm
10:15 46.3 °F /  7.9 °C 32.7 °F /  0.4 °C 30.07 in /  1018.2 hPa WNW 1.6 mph /  2.6 km/h 4.0 mph /  6.4 km/h 59 % 0.00 in /  0 mm
10:20 46.5 °F /  8.1 °C 32.1 °F /  0.1 °C 30.07 in /  1018.2 hPa WNW 2.9 mph /  4.7 km/h 4.6 mph /  7.4 km/h 57 % 0.00 in /  0 mm
10:25 46.7 °F /  8.2 °C 32.7 °F /  0.4 °C 30.07 in /  1018.2 hPa WNW 0.4 mph /  0.6 km/h 2.3 mph /  3.7 km/h 58 % 0.00 in /  0 mm
10:30 46.8 °F /  8.2 °C 31.9 °F /  -0.1 °C 30.07 in /  1018.2 hPa WNW 2.4 mph /  3.9 km/h 3.5 mph /  5.6 km/h 56 % 0.00 in /  0 mm
10:35 46.9 °F /  8.3 °C 32.0 °F /  0 °C 30.07 in /  1018.2 hPa SW 1.0 mph /  1.6 km/h 3.5 mph /  5.6 km/h 56 % 0.00 in /  0 mm
10:40 47.0 °F /  8.3 °C 31.7 °F /  -0.2 °C 30.07 in /  1018.2 hPa SW 0.1 mph /  0.2 km/h 1.0 mph /  1.6 km/h 55 % 0.00 in /  0 mm
10:45 47.1 °F /  8.4 °C 31.7 °F /  -0.2 °C 30.07 in /  1018.2 hPa NW 3.0 mph /  4.8 km/h 3.5 mph /  5.6 km/h 55 % 0.00 in /  0 mm
10:46 47.1 °F /  8.4 °C 31.3 °F /  -0.4 °C 30.07 in /  1018.2 hPa NW 1.3 mph /  2.1 km/h 4.6 mph /  7.4 km/h 54 % 0.00 in /  0 mm
10:51 47.0 °F /  8.3 °C 31.7 °F /  -0.2 °C 30.06 in /  1017.8 hPa West 3.1 mph /  5 km/h 5.0 mph /  8 km/h 55 % 0.00 in /  0 mm
10:56 46.9 °F /  8.3 °C 32.0 °F /  0 °C 30.06 in /  1017.8 hPa WNW 2.2 mph /  3.5 km/h 3.5 mph /  5.6 km/h 56 % 0.00 in /  0 mm
11:01 46.8 °F /  8.2 °C 31.9 °F /  -0.1 °C 30.06 in /  1017.8 hPa WSW 1.3 mph /  2.1 km/h 4.0 mph /  6.4 km/h 56 % 0.00 in /  0 mm
11:06 46.5 °F /  8.1 °C 31.2 °F /  -0.4 °C 30.06 in /  1017.8 hPa West 3.4 mph /  5.5 km/h 6.0 mph /  9.7 km/h 55 % 0.00 in /  0 mm
11:11 46.3 °F /  7.9 °C 31.9 °F /  -0.1 °C 30.06 in /  1017.8 hPa NW 0.9 mph /  1.4 km/h 3.0 mph /  4.8 km/h 57 % 0.01 in /  0.25 mm
11:16 46.1 °F /  7.8 °C 31.7 °F /  -0.2 °C 30.06 in /  1017.8 hPa WNW 2.6 mph /  4.2 km/h 4.0 mph /  6.4 km/h 57 % 0.01 in /  0.25 mm
11:21 46.0 °F /  7.8 °C 31.2 °F /  -0.4 °C 30.06 in /  1017.8 hPa WNW 3.8 mph /  6.1 km/h 5.8 mph /  9.3 km/h 56 % 0.01 in /  0.25 mm
11:26 45.8 °F /  7.7 °C 30.5 °F /  -0.8 °C 30.05 in /  1017.5 hPa WNW 4.0 mph /  6.4 km/h 4.6 mph /  7.4 km/h 55 % 0.01 in /  0.25 mm
11:31 45.7 °F /  7.6 °C 30.9 °F /  -0.6 °C 30.05 in /  1017.5 hPa West 4.1 mph /  6.6 km/h 5.8 mph /  9.3 km/h 56 % 0.01 in /  0.25 mm
11:36 45.5 °F /  7.5 °C 30.7 °F /  -0.7 °C 30.05 in /  1017.5 hPa WNW 2.0 mph /  3.2 km/h 3.5 mph /  5.6 km/h 56 % 0.01 in /  0.25 mm
11:41 45.5 °F /  7.5 °C 31.1 °F /  -0.5 °C 30.04 in /  1017.2 hPa WNW 2.7 mph /  4.3 km/h 6.9 mph /  11.1 km/h 57 % 0.01 in /  0.25 mm
11:47 45.4 °F /  7.4 °C 30.6 °F /  -0.8 °C 30.04 in /  1017.2 hPa SW 1.2 mph /  1.9 km/h 3.5 mph /  5.6 km/h 56 % 0.01 in /  0.25 mm
11:52 45.5 °F /  7.5 °C 32.4 °F /  0.2 °C 30.04 in /  1017.2 hPa NW 0.9 mph /  1.4 km/h 4.6 mph /  7.4 km/h 60 % 0.01 in /  0.25 mm
11:57 45.5 °F /  7.5 °C 31.6 °F /  -0.2 °C 30.04 in /  1017.2 hPa NW 1.1 mph /  1.8 km/h 4.0 mph /  6.4 km/h 58 % 0.01 in /  0.25 mm
12:02 45.6 °F /  7.6 °C 32.9 °F /  0.5 °C 30.04 in /  1017.2 hPa WNW 3.0 mph /  4.8 km/h 5.8 mph /  9.3 km/h 61 % 0.01 in /  0.25 mm
12:07 45.8 °F /  7.7 °C 33.5 °F /  0.8 °C 30.04 in /  1017.2 hPa WNW 2.8 mph /  4.5 km/h 6.9 mph /  11.1 km/h 62 % 0.01 in /  0.25 mm
12:12 45.8 °F /  7.7 °C 33.5 °F /  0.8 °C 30.04 in /  1017.2 hPa NW 2.0 mph /  3.2 km/h 6.0 mph /  9.7 km/h 62 % 0.00 in /  0 mm
12:17 46.0 °F /  7.8 °C 34.1 °F /  1.2 °C 30.04 in /  1017.2 hPa North 3.1 mph /  5 km/h 4.6 mph /  7.4 km/h 63 % 0.00 in /  0 mm
12:22 46.1 °F /  7.8 °C 34.2 °F /  1.2 °C 30.04 in /  1017.2 hPa NW 2.5 mph /  4 km/h 4.6 mph /  7.4 km/h 63 % 0.00 in /  0 mm
12:27 46.1 °F /  7.8 °C 34.2 °F /  1.2 °C 30.04 in /  1017.2 hPa NW 4.1 mph /  6.6 km/h 6.9 mph /  11.1 km/h 63 % 0.00 in /  0 mm
12:32 46.2 °F /  7.9 °C 34.7 °F /  1.5 °C 30.03 in /  1016.8 hPa North 2.7 mph /  4.3 km/h 4.0 mph /  6.4 km/h 64 % 0.00 in /  0 mm
12:37 46.2 °F /  7.9 °C 34.7 °F /  1.5 °C 30.03 in /  1016.8 hPa NNW 2.5 mph /  4 km/h 6.0 mph /  9.7 km/h 64 % 0.00 in /  0 mm
12:42 46.3 °F /  7.9 °C 34.8 °F /  1.6 °C 30.04 in /  1017.2 hPa North 3.4 mph /  5.5 km/h 5.0 mph /  8 km/h 64 % 0.00 in /  0 mm
12:47 46.4 °F /  8 °C 35.3 °F /  1.8 °C 30.03 in /  1016.8 hPa NW 2.0 mph /  3.2 km/h 4.6 mph /  7.4 km/h 65 % 0.00 in /  0 mm
12:52 46.4 °F /  8 °C 34.9 °F /  1.6 °C 30.03 in /  1016.8 hPa North 2.0 mph /  3.2 km/h 3.5 mph /  5.6 km/h 64 % 0.00 in /  0 mm
12:57 46.5 °F /  8.1 °C 35.0 °F /  1.7 °C 30.03 in /  1016.8 hPa NW 1.2 mph /  1.9 km/h 3.5 mph /  5.6 km/h 64 % 0.00 in /  0 mm
13:02 46.6 °F /  8.1 °C 35.1 °F /  1.7 °C 30.02 in /  1016.5 hPa NNW 2.6 mph /  4.2 km/h 3.5 mph /  5.6 km/h 64 % 0.00 in /  0 mm
13:07 46.8 °F /  8.2 °C 34.5 °F /  1.4 °C 30.02 in /  1016.5 hPa NNW 2.3 mph /  3.7 km/h 5.8 mph /  9.3 km/h 62 % 0.00 in /  0 mm
13:12 46.9 °F /  8.3 °C 34.6 °F /  1.4 °C 30.02 in /  1016.5 hPa NNW 2.9 mph /  4.7 km/h 3.5 mph /  5.6 km/h 62 % 0.00 in /  0 mm
13:17 47.1 °F /  8.4 °C 34.7 °F /  1.5 °C 30.02 in /  1016.5 hPa North 2.1 mph /  3.4 km/h 6.0 mph /  9.7 km/h 62 % 0.00 in /  0 mm
13:23 47.4 °F /  8.6 °C 34.6 °F /  1.4 °C 30.02 in /  1016.5 hPa NW 2.5 mph /  4 km/h 4.0 mph /  6.4 km/h 61 % 0.00 in /  0 mm
13:28 47.6 °F /  8.7 °C 34.8 °F /  1.6 °C 30.02 in /  1016.5 hPa WNW 1.8 mph /  2.9 km/h 3.5 mph /  5.6 km/h 61 % 0.00 in /  0 mm
13:33 47.9 °F /  8.8 °C 35.5 °F /  1.9 °C 30.02 in /  1016.5 hPa WNW 2.0 mph /  3.2 km/h 4.6 mph /  7.4 km/h 62 % 0.00 in /  0 mm
13:38 48.2 °F /  9 °C 35.0 °F /  1.7 °C 30.01 in /  1016.1 hPa NW 2.8 mph /  4.5 km/h 4.6 mph /  7.4 km/h 60 % 0.00 in /  0 mm
13:44 48.5 °F /  9.2 °C 34.8 °F /  1.6 °C 30.01 in /  1016.1 hPa NW 1.4 mph /  2.3 km/h 5.8 mph /  9.3 km/h 59 % 0.00 in /  0 mm
13:49 48.7 °F /  9.3 °C 35.0 °F /  1.7 °C 30.01 in /  1016.1 hPa NW 2.9 mph /  4.7 km/h 4.6 mph /  7.4 km/h 59 % 0.00 in /  0 mm
13:54 48.9 °F /  9.4 °C 34.8 °F /  1.6 °C 30.00 in /  1015.8 hPa NW 0.7 mph /  1.1 km/h 3.5 mph /  5.6 km/h 58 % 0.00 in /  0 mm
13:59 49.0 °F /  9.4 °C 34.4 °F /  1.3 °C 30.00 in /  1015.8 hPa NNW 2.0 mph /  3.2 km/h 3.5 mph /  5.6 km/h 57 % 0.00 in /  0 mm
14:04 49.0 °F /  9.4 °C 34.9 °F /  1.6 °C 30.00 in /  1015.8 hPa WNW 1.7 mph /  2.7 km/h 3.5 mph /  5.6 km/h 58 % 0.00 in /  0 mm
14:09 49.0 °F /  9.4 °C 34.9 °F /  1.6 °C 30.00 in /  1015.8 hPa NNE 2.3 mph /  3.7 km/h 4.0 mph /  6.4 km/h 58 % 0.00 in /  0 mm
14:10 49.0 °F /  9.4 °C 34.9 °F /  1.6 °C 30.00 in /  1015.8 hPa NNE 2.3 mph /  3.7 km/h 3.5 mph /  5.6 km/h 58 % 0.00 in /  0 mm
14:15 48.8 °F /  9.3 °C 34.7 °F /  1.5 °C 30.00 in /  1015.8 hPa NNE 2.1 mph /  3.4 km/h 3.5 mph /  5.6 km/h 58 % 0.00 in /  0 mm
14:20 48.5 °F /  9.2 °C 33.9 °F /  1.1 °C 30.00 in /  1015.8 hPa ENE 1.7 mph /  2.7 km/h 3.5 mph /  5.6 km/h 57 % 0.00 in /  0 mm
14:25 48.4 °F /  9.1 °C 33.9 °F /  1.1 °C 30.00 in /  1015.8 hPa ENE 0.2 mph /  0.3 km/h 2.3 mph /  3.7 km/h 57 % 0.00 in /  0 mm
14:30 48.3 °F /  9.1 °C 33.8 °F /  1 °C 29.99 in /  1015.5 hPa Calm     57 % 0.00 in /  0 mm
14:35 48.2 °F /  9 °C 34.1 °F /  1.2 °C 29.99 in /  1015.5 hPa ENE 1.2 mph /  1.9 km/h 2.3 mph /  3.7 km/h 58 % 0.00 in /  0 mm
14:40 48.0 °F /  8.9 °C 33.9 °F /  1.1 °C 29.99 in /  1015.5 hPa ENE 0.7 mph /  1.1 km/h 2.3 mph /  3.7 km/h 58 % 0.00 in /  0 mm
14:45 47.9 °F /  8.8 °C 34.3 °F /  1.3 °C 29.99 in /  1015.5 hPa ENE 0.1 mph /  0.2 km/h 1.2 mph /  1.9 km/h 59 % 0.00 in /  0 mm
14:50 47.8 °F /  8.8 °C 33.7 °F /  0.9 °C 29.99 in /  1015.5 hPa ENE 0.6 mph /  1 km/h 2.3 mph /  3.7 km/h 58 % 0.00 in /  0 mm
14:55 47.8 °F /  8.8 °C 34.6 °F /  1.4 °C 29.99 in /  1015.5 hPa NE 0.2 mph /  0.3 km/h 2.3 mph /  3.7 km/h 60 % 0.00 in /  0 mm
15:00 47.6 °F /  8.7 °C 34.0 °F /  1.1 °C 29.98 in /  1015.1 hPa NE 1.3 mph /  2.1 km/h 2.3 mph /  3.7 km/h 59 % 0.00 in /  0 mm
15:05 47.5 °F /  8.6 °C 34.3 °F /  1.3 °C 29.98 in /  1015.1 hPa NE 0.7 mph /  1.1 km/h 2.0 mph /  3.2 km/h 60 % 0.00 in /  0 mm
15:10 47.4 °F /  8.6 °C 34.6 °F /  1.4 °C 29.98 in /  1015.1 hPa NE 0.4 mph /  0.6 km/h 2.3 mph /  3.7 km/h 61 % 0.00 in /  0 mm
15:15 47.3 °F /  8.5 °C 34.5 °F /  1.4 °C 29.98 in /  1015.1 hPa NE 0.3 mph /  0.5 km/h 2.3 mph /  3.7 km/h 61 % 0.00 in /  0 mm
15:20 47.2 °F /  8.4 °C 34.4 °F /  1.3 °C 29.98 in /  1015.1 hPa Calm   1.2 mph /  1.9 km/h 61 % 0.00 in /  0 mm
15:25 47.2 °F /  8.4 °C 34.8 °F /  1.6 °C 29.98 in /  1015.1 hPa Calm   2.3 mph /  3.7 km/h 62 % 0.00 in /  0 mm
15:30 47.1 °F /  8.4 °C 34.7 °F /  1.5 °C 29.98 in /  1015.1 hPa Calm     62 % 0.00 in /  0 mm
15:35 47.0 °F /  8.3 °C 34.2 °F /  1.2 °C 29.98 in /  1015.1 hPa Calm     61 % 0.00 in /  0 mm
15:40 46.9 °F /  8.3 °C 34.1 °F /  1.2 °C 29.98 in /  1015.1 hPa SSE 0.7 mph /  1.1 km/h 2.3 mph /  3.7 km/h 61 % 0.00 in /  0 mm
15:45 46.9 °F /  8.3 °C 32.9 °F /  0.5 °C 29.98 in /  1015.1 hPa Calm     58 % 0.00 in /  0 mm
15:50 46.8 °F /  8.2 °C 32.4 °F /  0.2 °C 29.98 in /  1015.1 hPa Calm     57 % 0.00 in /  0 mm
15:55 46.8 °F /  8.2 °C 31.9 °F /  -0.1 °C 29.98 in /  1015.1 hPa SSE 0.5 mph /  0.8 km/h 3.5 mph /  5.6 km/h 56 % 0.00 in /  0 mm
16:00 46.7 °F /  8.2 °C 31.8 °F /  -0.1 °C 29.98 in /  1015.1 hPa SW 0.3 mph /  0.5 km/h 2.3 mph /  3.7 km/h 56 % 0.00 in /  0 mm
16:05 46.7 °F /  8.2 °C 31.8 °F /  -0.1 °C 29.99 in /  1015.5 hPa SW 0.5 mph /  0.8 km/h 2.3 mph /  3.7 km/h 56 % 0.00 in /  0 mm
16:10 46.6 °F /  8.1 °C 31.7 °F /  -0.2 °C 29.99 in /  1015.5 hPa Calm   1.2 mph /  1.9 km/h 56 % 0.00 in /  0 mm
16:15 46.5 °F /  8.1 °C 31.2 °F /  -0.4 °C 29.99 in /  1015.5 hPa Calm     55 % 0.00 in /  0 mm
16:20 46.4 °F /  8 °C 31.1 °F /  -0.5 °C 29.99 in /  1015.5 hPa Calm     55 % 0.00 in /  0 mm
16:25 46.3 °F /  7.9 °C 31.0 °F /  -0.6 °C 29.99 in /  1015.5 hPa SSW 1.1 mph /  1.8 km/h 2.3 mph /  3.7 km/h 55 % 0.00 in /  0 mm
16:30 46.1 °F /  7.8 °C 30.8 °F /  -0.7 °C 29.99 in /  1015.5 hPa Calm   1.2 mph /  1.9 km/h 55 % 0.00 in /  0 mm
16:35 46.0 °F /  7.8 °C 31.2 °F /  -0.4 °C 29.99 in /  1015.5 hPa Calm     56 % 0.00 in /  0 mm
16:40 45.8 °F /  7.7 °C 31.4 °F /  -0.3 °C 29.98 in /  1015.1 hPa SSW 1.3 mph /  2.1 km/h 2.3 mph /  3.7 km/h 57 % 0.00 in /  0 mm
16:45 45.7 °F /  7.6 °C 31.3 °F /  -0.4 °C 29.99 in /  1015.5 hPa SSW 0.9 mph /  1.4 km/h 2.0 mph /  3.2 km/h 57 % 0.00 in /  0 mm
16:50 45.5 °F /  7.5 °C 31.1 °F /  -0.5 °C 29.99 in /  1015.5 hPa SSW 0.5 mph /  0.8 km/h 1.0 mph /  1.6 km/h 57 % 0.00 in /  0 mm
16:55 45.4 °F /  7.4 °C 31.5 °F /  -0.3 °C 29.99 in /  1015.5 hPa SSW 1.7 mph /  2.7 km/h 2.3 mph /  3.7 km/h 58 % 0.00 in /  0 mm
17:01 45.2 °F /  7.3 °C 31.7 °F /  -0.2 °C 29.99 in /  1015.5 hPa SSW 1.7 mph /  2.7 km/h 3.0 mph /  4.8 km/h 59 % 0.00 in /  0 mm
17:06 45.0 °F /  7.2 °C 31.5 °F /  -0.3 °C 29.99 in /  1015.5 hPa SSW 1.4 mph /  2.3 km/h 2.3 mph /  3.7 km/h 59 % 0.00 in /  0 mm
17:11 44.7 °F /  7.1 °C 31.7 °F /  -0.2 °C 29.99 in /  1015.5 hPa SSW 2.6 mph /  4.2 km/h 3.5 mph /  5.6 km/h 60 % 0.00 in /  0 mm
17:16 44.5 °F /  6.9 °C 31.9 °F /  -0.1 °C 29.99 in /  1015.5 hPa SSW 0.8 mph /  1.3 km/h 3.5 mph /  5.6 km/h 61 % 0.00 in /  0 mm
17:21 44.3 °F /  6.8 °C 31.7 °F /  -0.2 °C 29.99 in /  1015.5 hPa SSW 2.0 mph /  3.2 km/h 2.3 mph /  3.7 km/h 61 % 0.00 in /  0 mm
17:26 44.1 °F /  6.7 °C 31.9 °F /  -0.1 °C 30.00 in /  1015.8 hPa South 1.6 mph /  2.6 km/h 3.5 mph /  5.6 km/h 62 % 0.00 in /  0 mm
17:31 43.9 °F /  6.6 °C 32.1 °F /  0.1 °C 30.00 in /  1015.8 hPa SSW 1.0 mph /  1.6 km/h 3.0 mph /  4.8 km/h 63 % 0.00 in /  0 mm
17:36 43.7 °F /  6.5 °C 31.9 °F /  -0.1 °C 30.00 in /  1015.8 hPa SSW 1.0 mph /  1.6 km/h 4.0 mph /  6.4 km/h 63 % 0.00 in /  0 mm
17:41 43.6 °F /  6.4 °C 31.8 °F /  -0.1 °C 30.00 in /  1015.8 hPa SSW 1.0 mph /  1.6 km/h 3.0 mph /  4.8 km/h 63 % 0.00 in /  0 mm
17:46 43.4 °F /  6.3 °C 32.0 °F /  0 °C 30.00 in /  1015.8 hPa SSW 1.0 mph /  1.6 km/h 3.0 mph /  4.8 km/h 64 % 0.00 in /  0 mm
17:51 43.3 °F /  6.3 °C 32.3 °F /  0.2 °C 30.00 in /  1015.8 hPa SSW 0.4 mph /  0.6 km/h   65 % 0.00 in /  0 mm
17:56 43.1 °F /  6.2 °C 32.1 °F /  0.1 °C 30.00 in /  1015.8 hPa SSW 0.3 mph /  0.5 km/h 2.3 mph /  3.7 km/h 65 % 0.00 in /  0 mm
18:01 43.0 °F /  6.1 °C 32.0 °F /  0 °C 30.00 in /  1015.8 hPa Calm     65 % 0.00 in /  0 mm
18:06 42.8 °F /  6 °C 32.2 °F /  0.1 °C 30.00 in /  1015.8 hPa Calm   1.2 mph /  1.9 km/h 66 % 0.00 in /  0 mm
18:10 42.7 °F /  5.9 °C 32.1 °F /  0.1 °C 30.00 in /  1015.8 hPa Calm     66 % 0.00 in /  0 mm
18:16 42.5 °F /  5.8 °C 31.9 °F /  -0.1 °C 30.00 in /  1015.8 hPa Calm     66 % 0.00 in /  0 mm
18:21 42.4 °F /  5.8 °C 32.2 °F /  0.1 °C 30.00 in /  1015.8 hPa Calm     67 % 0.00 in /  0 mm
18:26 42.2 °F /  5.7 °C 32.0 °F /  0 °C 30.00 in /  1015.8 hPa Calm     67 % 0.00 in /  0 mm
18:31 42.1 °F /  5.6 °C 32.3 °F /  0.2 °C 30.00 in /  1015.8 hPa Calm     68 % 0.00 in /  0 mm
18:36 41.9 °F /  5.5 °C 32.1 °F /  0.1 °C 30.00 in /  1015.8 hPa Calm     68 % 0.00 in /  0 mm
18:41 41.6 °F /  5.3 °C 32.2 °F /  0.1 °C 30.00 in /  1015.8 hPa Calm     69 % 0.00 in /  0 mm
18:46 41.4 °F /  5.2 °C 32.3 °F /  0.2 °C 30.00 in /  1015.8 hPa Calm     70 % 0.00 in /  0 mm
18:51 41.2 °F /  5.1 °C 32.1 °F /  0.1 °C 30.00 in /  1015.8 hPa Calm     70 % 0.00 in /  0 mm
18:56 40.9 °F /  4.9 °C 31.9 °F /  -0.1 °C 30.00 in /  1015.8 hPa Calm     70 % 0.00 in /  0 mm
19:01 40.7 °F /  4.8 °C 32.0 °F /  0 °C 30.00 in /  1015.8 hPa Calm     71 % 0.00 in /  0 mm
19:06 40.4 °F /  4.7 °C 32.1 °F /  0.1 °C 30.00 in /  1015.8 hPa SSW 0.1 mph /  0.2 km/h   72 % 0.00 in /  0 mm
19:11 40.1 °F /  4.5 °C 32.1 °F /  0.1 °C 30.00 in /  1015.8 hPa Calm     73 % 0.00 in /  0 mm
19:16 39.9 °F /  4.4 °C 32.3 °F /  0.2 °C 30.00 in /  1015.8 hPa Calm     74 % 0.00 in /  0 mm
19:21 39.7 °F /  4.3 °C 32.1 °F /  0.1 °C 30.00 in /  1015.8 hPa Calm     74 % 0.00 in /  0 mm
19:26 39.5 °F /  4.2 °C 31.9 °F /  -0.1 °C 30.00 in /  1015.8 hPa Calm     74 % 0.00 in /  0 mm
19:36 39.1 °F /  3.9 °C 31.8 °F /  -0.1 °C 29.99 in /  1015.5 hPa Calm     75 % 0.00 in /  0 mm
19:41 38.8 °F /  3.8 °C 31.9 °F /  -0.1 °C 29.99 in /  1015.5 hPa Calm     76 % 0.00 in /  0 mm
19:46 38.7 °F /  3.7 °C 31.8 °F /  -0.1 °C 29.99 in /  1015.5 hPa Calm     76 % 0.00 in /  0 mm
19:56 38.3 °F /  3.5 °C 31.7 °F /  -0.2 °C 30.00 in /  1015.8 hPa Calm     77 % 0.00 in /  0 mm
20:01 38.2 °F /  3.4 °C 31.6 °F /  -0.2 °C 30.00 in /  1015.8 hPa Calm     77 % 0.00 in /  0 mm
20:06 38.0 °F /  3.3 °C 31.7 °F /  -0.2 °C 30.00 in /  1015.8 hPa Calm     78 % 0.00 in /  0 mm
20:11 37.8 °F /  3.2 °C 31.6 °F /  -0.2 °C 30.00 in /  1015.8 hPa Calm     78 % 0.00 in /  0 mm
20:16 37.8 °F /  3.2 °C 31.6 °F /  -0.2 °C 29.99 in /  1015.5 hPa Calm     78 % 0.00 in /  0 mm
20:21 37.7 °F /  3.2 °C 31.8 °F /  -0.1 °C 29.99 in /  1015.5 hPa Calm     79 % 0.00 in /  0 mm
20:26 37.6 °F /  3.1 °C 31.7 °F /  -0.2 °C 29.99 in /  1015.5 hPa Calm     79 % 0.00 in /  0 mm
20:31 37.5 °F /  3.1 °C 32.2 °F /  0.1 °C 30.00 in /  1015.8 hPa SSW 0.8 mph /  1.3 km/h 2.3 mph /  3.7 km/h 81 % 0.00 in /  0 mm
20:46 37.4 °F /  3 °C 32.4 °F /  0.2 °C 29.99 in /  1015.5 hPa Calm     82 % 0.00 in /  0 mm
20:51 37.3 °F /  2.9 °C 32.3 °F /  0.2 °C 29.99 in /  1015.5 hPa Calm     82 % 0.00 in /  0 mm
20:56 37.3 °F /  2.9 °C 32.3 °F /  0.2 °C 29.99 in /  1015.5 hPa Calm     82 % 0.00 in /  0 mm
21:01 37.2 °F /  2.9 °C 32.2 °F /  0.1 °C 29.99 in /  1015.5 hPa Calm     82 % 0.00 in /  0 mm
21:06 37.1 °F /  2.8 °C 32.1 °F /  0.1 °C 29.99 in /  1015.5 hPa Calm     82 % 0.00 in /  0 mm
21:11 37.1 °F /  2.8 °C 32.1 °F /  0.1 °C 29.99 in /  1015.5 hPa Calm     82 % 0.00 in /  0 mm
21:16 37.0 °F /  2.8 °C 32.0 °F /  0 °C 29.99 in /  1015.5 hPa Calm     82 % 0.00 in /  0 mm
21:21 36.9 °F /  2.7 °C 31.9 °F /  -0.1 °C 29.99 in /  1015.5 hPa Calm     82 % 0.00 in /  0 mm
21:26 36.9 °F /  2.7 °C 32.2 °F /  0.1 °C 29.99 in /  1015.5 hPa SSW 0.2 mph /  0.3 km/h 1.0 mph /  1.6 km/h 83 % 0.00 in /  0 mm
21:31 36.8 °F /  2.7 °C 32.4 °F /  0.2 °C 29.99 in /  1015.5 hPa Calm   1.2 mph /  1.9 km/h 84 % 0.00 in /  0 mm
21:36 36.8 °F /  2.7 °C 32.7 °F /  0.4 °C 29.98 in /  1015.1 hPa Calm   1.2 mph /  1.9 km/h 85 % 0.00 in /  0 mm
21:41 36.9 °F /  2.7 °C 33.1 °F /  0.6 °C 29.98 in /  1015.1 hPa Calm     86 % 0.00 in /  0 mm
21:46 37.0 °F /  2.8 °C 33.5 °F /  0.8 °C 29.98 in /  1015.1 hPa WSW 0.1 mph /  0.2 km/h 1.2 mph /  1.9 km/h 87 % 0.00 in /  0 mm
21:51 37.2 °F /  2.9 °C 34.0 °F /  1.1 °C 29.98 in /  1015.1 hPa SW 1.8 mph /  2.9 km/h 2.3 mph /  3.7 km/h 88 % 0.00 in /  0 mm
21:56 37.5 °F /  3.1 °C 34.6 °F /  1.4 °C 29.98 in /  1015.1 hPa SW 1.2 mph /  1.9 km/h 2.3 mph /  3.7 km/h 89 % 0.00 in /  0 mm
22:01 37.8 °F /  3.2 °C 34.8 °F /  1.6 °C 29.97 in /  1014.8 hPa SW 0.3 mph /  0.5 km/h 2.3 mph /  3.7 km/h 89 % 0.00 in /  0 mm
22:06 38.1 °F /  3.4 °C 35.1 °F /  1.7 °C 29.98 in /  1015.1 hPa Calm   1.0 mph /  1.6 km/h 89 % 0.00 in /  0 mm
22:12 38.3 °F /  3.5 °C 35.3 °F /  1.8 °C 29.98 in /  1015.1 hPa SW 1.2 mph /  1.9 km/h 3.5 mph /  5.6 km/h 89 % 0.00 in /  0 mm
22:17 38.5 °F /  3.6 °C 35.5 °F /  1.9 °C 29.97 in /  1014.8 hPa SW 1.1 mph /  1.8 km/h 5.0 mph /  8 km/h 89 % 0.00 in /  0 mm
22:22 38.8 °F /  3.8 °C 35.8 °F /  2.1 °C 29.97 in /  1014.8 hPa SW 1.5 mph /  2.4 km/h 2.3 mph /  3.7 km/h 89 % 0.00 in /  0 mm
22:25 38.9 °F /  3.8 °C 35.9 °F /  2.2 °C 29.97 in /  1014.8 hPa SW 3.1 mph /  5 km/h 7.0 mph /  11.3 km/h 89 % 0.00 in /  0 mm
22:26 39.0 °F /  3.9 °C 36.0 °F /  2.2 °C 29.97 in /  1014.8 hPa SW 2.2 mph /  3.5 km/h 8.1 mph /  13 km/h 89 % 0.00 in /  0 mm
22:27 39.1 °F /  3.9 °C 36.1 °F /  2.3 °C 29.97 in /  1014.8 hPa SW 3.0 mph /  4.8 km/h 5.0 mph /  8 km/h 89 % 0.00 in /  0 mm
22:32 39.4 °F /  4.1 °C 36.4 °F /  2.4 °C 29.97 in /  1014.8 hPa SW 2.2 mph /  3.5 km/h 4.0 mph /  6.4 km/h 89 % 0.00 in /  0 mm
22:37 39.6 °F /  4.2 °C 36.6 °F /  2.6 °C 29.97 in /  1014.8 hPa SW 1.2 mph /  1.9 km/h 2.3 mph /  3.7 km/h 89 % 0.00 in /  0 mm
22:38 39.6 °F /  4.2 °C 36.6 °F /  2.6 °C 29.97 in /  1014.8 hPa SW 1.4 mph /  2.3 km/h 4.0 mph /  6.4 km/h 89 % 0.00 in /  0 mm
22:48 40.0 °F /  4.4 °C 36.7 °F /  2.6 °C 29.97 in /  1014.8 hPa SW 0.2 mph /  0.3 km/h 2.3 mph /  3.7 km/h 88 % 0.00 in /  0 mm
22:53 40.3 °F /  4.6 °C 36.7 °F /  2.6 °C 29.96 in /  1014.4 hPa SSW 1.5 mph /  2.4 km/h 2.3 mph /  3.7 km/h 87 % 0.00 in /  0 mm
22:58 40.4 °F /  4.7 °C 36.5 °F /  2.5 °C 29.96 in /  1014.4 hPa SW 2.1 mph /  3.4 km/h 3.5 mph /  5.6 km/h 86 % 0.00 in /  0 mm
23:03 40.6 °F /  4.8 °C 36.7 °F /  2.6 °C 29.96 in /  1014.4 hPa WSW 1.8 mph /  2.9 km/h 6.0 mph /  9.7 km/h 86 % 0.00 in /  0 mm
23:08 40.8 °F /  4.9 °C 36.6 °F /  2.6 °C 29.96 in /  1014.4 hPa WSW 0.8 mph /  1.3 km/h 3.5 mph /  5.6 km/h 85 % 0.00 in /  0 mm
23:13 40.9 °F /  4.9 °C 36.4 °F /  2.4 °C 29.96 in /  1014.4 hPa WSW 3.0 mph /  4.8 km/h 4.6 mph /  7.4 km/h 84 % 0.00 in /  0 mm
23:18 41.0 °F /  5 °C 36.5 °F /  2.5 °C 29.96 in /  1014.4 hPa WSW 1.6 mph /  2.6 km/h 3.5 mph /  5.6 km/h 84 % 0.00 in /  0 mm
23:23 41.1 °F /  5.1 °C 36.3 °F /  2.4 °C 29.96 in /  1014.4 hPa SW 1.0 mph /  1.6 km/h 2.3 mph /  3.7 km/h 83 % 0.00 in /  0 mm
23:28 41.3 °F /  5.2 °C 36.5 °F /  2.5 °C 29.96 in /  1014.4 hPa SSW 2.2 mph /  3.5 km/h 5.8 mph /  9.3 km/h 83 % 0.00 in /  0 mm
23:33 41.3 °F /  5.2 °C 36.2 °F /  2.3 °C 29.95 in /  1014.1 hPa SW 1.2 mph /  1.9 km/h 2.3 mph /  3.7 km/h 82 % 0.00 in /  0 mm
23:38 41.3 °F /  5.2 °C 36.2 °F /  2.3 °C 29.95 in /  1014.1 hPa SW 0.5 mph /  0.8 km/h 2.3 mph /  3.7 km/h 82 % 0.00 in /  0 mm
23:43 41.3 °F /  5.2 °C 35.9 °F /  2.2 °C 29.95 in /  1014.1 hPa WSW 0.7 mph /  1.1 km/h 3.5 mph /  5.6 km/h 81 % 0.00 in /  0 mm
23:48 41.3 °F /  5.2 °C 35.9 °F /  2.2 °C 29.95 in /  1014.1 hPa WSW 1.2 mph /  1.9 km/h 4.6 mph /  7.4 km/h 81 % 0.00 in /  0 mm
23:53 41.3 °F /  5.2 °C 35.3 °F /  1.8 °C 29.95 in /  1014.1 hPa WSW 1.8 mph /  2.9 km/h 4.6 mph /  7.4 km/h 79 % 0.00 in /  0 mm
23:58 41.3 °F /  5.2 °C 35.3 °F /  1.8 °C 29.95 in /  1014.1 hPa SW 0.3 mph /  0.5 km/h 2.3 mph /  3.7 km/h 79 % 0.00 in /  0 mm
Crab Meadow Weather
Compliments of Weather Underground - 2.75 mb

Script developed by  Jim McMurry - jmcmurry@mwt.net Adapted for the template by  Wim van der Kuil - Leuven-Template.eu

Recycling: An estimated 80,000,000 Hershey's Kisses are wrapped each day, using enough aluminum foil to cover over 50 acres of space -- that's almost 40 football fields. All that foil is recyclable, but not many people realize it.